Time;durP1;ratioP1;P1;durP2;ratioP2;P2;SDS_P1;SDS_P2;PMS_P1;PMS_P2;Temp;Humidity;BMP_temperature;BMP_pressure;BME280_temperature;BME280_humidity;BME280_pressure;Samples;Min_cycle;Max_cycle;Signal;HPM_P1;HPM_P2
2021/07/14 00:02:26;;;;;;;4.63;3.25;;;;;;;16.49;72.56;101462.41;4956657;28;20106;-51
2021/07/14 00:04:53;;;;;;;4.85;3.53;;;;;;;16.55;72.10;101455.38;4980637;28;20064;-43
2021/07/14 00:07:20;;;;;;;4.90;3.22;;;;;;;16.44;72.44;101444.72;4971021;28;20065;-54
2021/07/14 00:09:47;;;;;;;4.32;3.67;;;;;;;16.36;72.70;101454.13;4958848;28;20072;-42
2021/07/14 00:12:15;;;;;;;6.05;3.38;;;;;;;16.35;72.85;101446.94;4953466;28;20054;-44
2021/07/14 00:22:31;;;;;;;3.90;3.50;;;;;;;16.36;72.43;101439.38;5027634;28;20064;-44
2021/07/14 00:24:59;;;;;;;8.15;3.85;;;;;;;16.29;72.80;101430.81;5028093;28;20083;-45
2021/07/14 00:27:26;;;;;;;9.43;4.13;;;;;;;16.34;72.49;101438.91;5024872;28;20053;-46
2021/07/14 00:29:55;;;;;;;4.65;3.35;;;;;;;16.41;72.26;101439.88;5026306;28;20060;-43
2021/07/14 00:32:23;;;;;;;9.20;4.10;;;;;;;16.42;71.97;101441.50;5025459;28;20059;-48
2021/07/14 00:34:51;;;;;;;7.88;4.22;;;;;;;16.25;72.38;101441.13;5029361;28;20894;-45
2021/07/14 00:37:18;;;;;;;4.97;3.95;;;;;;;16.13;72.88;101430.91;5026078;28;20054;-42
2021/07/14 00:39:48;;;;;;;7.05;4.03;;;;;;;16.17;72.95;101439.38;5033804;28;20065;-50
2021/07/14 00:42:15;;;;;;;6.32;3.92;;;;;;;16.13;72.99;101444.88;5030973;28;20075;-44
2021/07/14 00:44:41;;;;;;;5.15;3.63;;;;;;;16.13;73.21;101450.44;5032977;28;20055;-54
2021/07/14 00:47:09;;;;;;;8.45;3.95;;;;;;;16.16;73.15;101452.53;5028481;28;20049;-43
2021/07/14 00:49:36;;;;;;;9.75;4.40;;;;;;;16.19;73.05;101446.22;5032230;28;20758;-50
2021/07/14 00:52:03;;;;;;;5.05;4.00;;;;;;;16.22;72.96;101447.47;5027466;28;20048;-51
2021/07/14 00:54:30;;;;;;;5.65;4.22;;;;;;;16.22;72.87;101444.66;5028451;28;20072;-46
2021/07/14 00:56:56;;;;;;;8.10;3.92;;;;;;;16.22;72.77;101442.69;5032701;28;20048;-46
2021/07/14 00:59:23;;;;;;;6.80;4.07;;;;;;;16.12;73.04;101448.84;5033435;28;20072;-45
2021/07/14 01:01:50;;;;;;;5.25;4.05;;;;;;;16.09;73.24;101449.59;5027218;28;20049;-45
2021/07/14 01:04:24;;;;;;;6.35;4.22;;;;;;;16.09;73.34;101441.19;5028781;28;20046;-43
2021/07/14 01:07:12;;;;;;;7.47;4.80;;;;;;;16.11;73.25;101449.19;5031750;28;20077;-43
2021/07/14 01:10:06;;;;;;;5.88;3.92;;;;;;;16.05;73.32;101454.25;5028952;28;20056;-49
2021/07/14 01:12:44;;;;;;;7.13;4.47;;;;;;;15.93;73.81;101451.59;5019930;28;20402;-43
2021/07/14 01:15:17;;;;;;;7.15;3.95;;;;;;;15.95;73.68;101440.88;5029774;28;20040;-42
2021/07/14 01:18:11;;;;;;;6.45;4.00;;;;;;;15.92;74.03;101444.38;5030172;28;20159;-44
2021/07/14 01:20:50;;;;;;;6.40;3.83;;;;;;;16.01;73.56;101441.41;5027247;28;20049;-49
2021/07/14 01:23:40;;;;;;;6.47;4.25;;;;;;;16.02;73.58;101455.00;5031340;28;20202;-44
2021/07/14 01:26:32;;;;;;;6.20;4.03;;;;;;;15.92;73.80;101447.19;5029948;28;20060;-42
2021/07/14 01:29:06;;;;;;;5.73;4.17;;;;;;;15.97;73.53;101446.09;5028725;28;20465;-48
2021/07/14 01:31:34;;;;;;;5.47;3.95;;;;;;;16.03;73.31;101447.41;5029504;28;20057;-43
2021/07/14 01:34:03;;;;;;;5.25;4.75;;;;;;;15.98;73.31;101434.56;5031269;28;20060;-42
2021/07/14 01:36:32;;;;;;;6.28;4.47;;;;;;;15.97;73.20;101438.53;5028690;28;20060;-42
2021/07/14 01:39:00;;;;;;;6.93;4.22;;;;;;;15.96;73.31;101436.91;5027368;28;20045;-44
2021/07/14 01:41:33;;;;;;;6.18;5.10;;;;;;;15.90;73.39;101434.75;5029504;28;20044;-51
2021/07/14 01:44:01;;;;;;;4.75;4.00;;;;;;;15.82;73.48;101433.78;5030689;28;20053;-47
2021/07/14 01:46:31;;;;;;;4.28;3.85;;;;;;;15.71;73.96;101443.91;5028590;28;20105;-43
2021/07/14 01:49:03;;;;;;;4.32;3.78;;;;;;;15.62;74.44;101449.66;5031912;28;20239;-42
2021/07/14 01:51:32;;;;;;;5.63;4.28;;;;;;;15.58;74.51;101447.97;5029071;28;20060;-46
2021/07/14 01:54:04;;;;;;;7.18;3.35;;;;;;;15.52;74.76;101446.63;5030534;28;20055;-43
2021/07/14 01:56:33;;;;;;;;;;;;;;;15.44;75.33;101444.78;5030215;28;20057;-45
2021/07/14 01:59:01;;;;;;;4.78;4.25;;;;;;;15.47;74.85;101446.88;5029503;28;19921;-42
2021/07/14 02:01:29;;;;;;;6.43;4.35;;;;;;;15.42;74.93;101439.59;5028049;28;20061;-47
2021/07/14 02:04:42;;;;;;;5.43;3.78;;;;;;;15.39;75.28;101442.28;5032957;28;20057;-51
2021/07/14 02:06:48;;;;;;;5.60;3.90;;;;;;;15.33;76.00;101446.53;5021968;28;20046;-49
2021/07/14 02:09:17;;;;;;;8.07;3.85;;;;;;;15.34;75.40;101450.91;5029233;28;20143;-43
2021/07/14 02:11:46;;;;;;;5.82;3.85;;;;;;;15.33;75.58;101455.69;5043648;28;20051;-53
2021/07/14 02:14:20;;;;;;;7.28;4.85;;;;;;;15.24;75.98;101453.09;5047879;28;20041;-43
2021/07/14 02:17:05;;;;;;;4.95;3.50;;;;;;;15.22;76.12;101460.19;5048773;28;20144;-44
2021/07/14 02:19:35;;;;;;;9.05;4.38;;;;;;;15.23;76.03;101462.63;5050011;28;20045;-43
2021/07/14 02:22:03;;;;;;;5.93;4.00;;;;;;;15.27;76.05;101463.50;5047057;28;20053;-43
2021/07/14 02:24:31;;;;;;;6.32;4.72;;;;;;;15.27;75.88;101464.69;5031415;28;20085;-44
2021/07/14 02:27:05;;;;;;;6.18;4.00;;;;;;;15.24;76.25;101461.47;5046971;28;20076;-51
2021/07/14 02:29:37;;;;;;;6.55;4.07;;;;;;;15.27;76.06;101460.72;5048630;28;20051;-43
2021/07/14 02:32:07;;;;;;;5.97;3.78;;;;;;;15.29;75.82;101465.97;5029123;28;20516;-45
2021/07/14 02:34:34;;;;;;;5.07;4.05;;;;;;;15.27;75.94;101468.31;5048754;28;20052;-46
2021/07/14 02:37:05;;;;;;;6.03;4.43;;;;;;;15.22;76.20;101460.19;5049839;28;20071;-50
2021/07/14 02:39:33;;;;;;;6.88;4.05;;;;;;;15.25;75.98;101465.84;5047197;28;20052;-48
2021/07/14 02:42:06;;;;;;;4.32;3.92;;;;;;;15.23;76.05;101462.63;5049638;28;20394;-44
2021/07/14 02:44:39;;;;;;;9.52;4.82;;;;;;;15.19;76.22;101461.72;5050195;28;20251;-52
2021/07/14 02:47:07;;;;;;;5.70;3.88;;;;;;;15.16;76.04;101462.44;5046102;28;20776;-43
2021/07/14 02:49:38;;;;;;;4.85;4.32;;;;;;;15.11;76.36;101457.13;5049154;28;20090;-45
2021/07/14 02:52:15;;;;;;;6.00;4.03;;;;;;;15.03;76.68;101460.09;5048650;28;20056;-46
2021/07/14 02:54:46;;;;;;;4.68;3.83;;;;;;;15.02;76.78;101456.50;5030971;28;20053;-48
2021/07/14 02:57:17;;;;;;;4.75;3.92;;;;;;;15.02;76.61;101462.06;5053613;28;20075;-50
2021/07/14 02:59:51;;;;;;;5.40;4.03;;;;;;;14.99;77.09;101468.34;5047429;28;20128;-43
2021/07/14 03:02:19;;;;;;;6.72;4.13;;;;;;;14.99;76.70;101471.13;5048792;28;20044;-46
2021/07/14 03:04:50;;;;;;;5.40;3.92;;;;;;;14.95;76.89;101458.28;5047305;28;20063;-48
2021/07/14 03:07:23;;;;;;;5.10;4.18;;;;;;;14.95;77.06;101472.22;5047270;28;20044;-43
2021/07/14 03:09:50;;;;;;;6.75;4.28;;;;;;;14.89;77.10;101463.31;5049632;28;20068;-43
2021/07/14 03:12:19;;;;;;;8.05;4.57;;;;;;;14.85;77.24;101465.16;5048315;28;20060;-51
2021/07/14 03:14:54;;;;;;;6.95;3.72;;;;;;;14.83;77.33;101463.91;5049794;28;20048;-42
2021/07/14 03:17:23;;;;;;;5.63;3.75;;;;;;;14.81;77.33;101461.47;5048447;28;20077;-43
2021/07/14 03:19:52;;;;;;;5.93;4.35;;;;;;;14.81;77.11;101463.47;5050695;28;20054;-48
2021/07/14 03:22:21;;;;;;;8.88;4.00;;;;;;;14.80;77.18;101461.84;5029890;28;20140;-43
2021/07/14 03:24:49;;;;;;;7.82;3.83;;;;;;;14.75;77.39;101462.09;5029345;28;20062;-44
2021/07/14 03:27:18;;;;;;;8.20;4.45;;;;;;;14.76;77.54;101469.28;5045238;28;20501;-44
2021/07/14 03:29:47;;;;;;;6.93;4.30;;;;;;;14.76;77.49;101469.28;5012855;28;20044;-43
2021/07/14 03:32:14;;;;;;;6.82;3.78;;;;;;;14.73;77.49;101470.81;5048608;28;20532;-43
2021/07/14 03:34:41;;;;;;;4.93;4.13;;;;;;;14.66;77.76;101462.25;5048266;28;20139;-43
2021/07/14 03:37:08;;;;;;;4.53;3.75;;;;;;;14.64;78.25;101461.78;5031093;28;20067;-43
2021/07/14 03:39:42;;;;;;;7.35;3.80;;;;;;;14.69;78.27;101464.34;5047057;28;20052;-45
2021/07/14 03:42:15;;;;;;;4.65;4.00;;;;;;;14.70;78.21;101471.53;5015452;28;20063;-42
2021/07/14 03:44:45;;;;;;;6.25;3.90;;;;;;;14.74;78.10;101461.31;5030289;28;20047;-53
2021/07/14 03:47:14;;;;;;;6.30;4.22;;;;;;;14.80;78.39;101464.63;5047461;28;20064;-42
2021/07/14 03:49:43;;;;;;;4.65;3.58;;;;;;;14.78;78.35;101464.97;5027338;28;20056;-49
2021/07/14 03:52:10;;;;;;;5.03;3.90;;;;;;;14.75;78.54;101470.44;5046993;28;20044;-51
2021/07/14 03:54:41;;;;;;;5.10;3.95;;;;;;;14.78;78.62;101464.97;5045498;28;20502;-48
2021/07/14 03:57:10;;;;;;;4.88;3.63;;;;;;;14.80;78.65;101471.00;5030905;28;20565;-43
2021/07/14 03:59:43;;;;;;;7.65;4.05;;;;;;;14.80;78.77;101476.56;5050600;28;20551;-42
2021/07/14 04:02:13;;;;;;;7.70;4.30;;;;;;;14.78;78.85;101467.75;5045326;28;20049;-49
2021/07/14 04:04:44;;;;;;;11.07;3.92;;;;;;;14.77;78.65;101471.75;5046484;28;20044;-42
2021/07/14 04:07:17;;;;;;;3.80;3.38;;;;;;;14.78;78.82;101481.72;5048777;28;20686;-46
2021/07/14 04:09:48;;;;;;;6.93;3.92;;;;;;;14.76;78.57;101481.25;5048789;28;20059;-48
2021/07/14 04:12:18;;;;;;;9.95;4.28;;;;;;;14.70;78.94;101476.28;5052334;28;20119;-47
2021/07/14 04:14:46;;;;;;;6.60;4.13;;;;;;;14.70;78.79;101468.72;5049070;28;20048;-44
2021/07/14 04:17:16;;;;;;;5.00;3.70;;;;;;;14.69;78.72;101466.31;5051495;28;20053;-52
2021/07/14 04:19:45;;;;;;;;;;;;;;;14.60;79.38;101474.81;5054613;28;20505;-42
2021/07/14 04:22:13;;;;;;;5.40;4.25;;;;;;;14.59;78.71;101478.75;5051950;28;19946;-43
2021/07/14 04:24:41;;;;;;;5.22;4.35;;;;;;;14.58;78.68;101474.38;5049144;28;20160;-43
2021/07/14 04:27:09;;;;;;;7.00;4.07;;;;;;;14.57;78.72;101481.09;5050066;28;20061;-53
2021/07/14 04:29:39;;;;;;;8.30;4.30;;;;;;;14.56;78.64;101483.06;5051069;28;20807;-45
2021/07/14 04:32:07;;;;;;;6.97;4.35;;;;;;;14.53;78.86;101483.00;5050271;28;20397;-45
2021/07/14 04:34:34;;;;;;;7.10;5.80;;;;;;;14.49;79.08;101482.06;5051315;28;20098;-42
2021/07/14 04:37:01;;;;;;;6.97;4.80;;;;;;;14.49;79.07;101487.63;5051842;28;20115;-47
2021/07/14 04:39:28;;;;;;;7.10;4.25;;;;;;;14.51;78.95;101485.28;5032449;28;20051;-45
2021/07/14 04:41:59;;;;;;;6.53;4.03;;;;;;;14.47;79.31;101493.56;5049980;28;20068;-43
2021/07/14 04:44:38;;;;;;;8.25;4.00;;;;;;;14.49;79.15;101496.00;5051310;28;20056;-43
2021/07/14 04:47:05;;;;;;;6.85;4.07;;;;;;;14.47;79.20;101498.31;5050275;28;20048;-46
2021/07/14 04:49:32;;;;;;;7.38;4.13;;;;;;;14.47;79.27;101512.25;5051148;28;20057;-42
2021/07/14 04:51:59;;;;;;;6.40;4.00;;;;;;;14.42;79.47;101509.72;5051686;28;20044;-42
2021/07/14 04:54:26;;;;;;;7.13;4.32;;;;;;;14.42;79.79;101509.72;5050843;28;20045;-43
2021/07/14 04:56:56;;;;;;;10.77;4.57;;;;;;;14.48;79.45;101514.69;5050983;28;20044;-47
2021/07/14 04:59:24;;;;;;;8.38;4.57;;;;;;;14.51;79.58;101518.72;5033107;28;21426;-49
2021/07/14 05:01:54;;;;;;;5.95;3.92;;;;;;;14.51;79.92;101521.53;5050679;28;20235;-42
2021/07/14 05:04:21;;;;;;;5.13;3.95;;;;;;;14.55;80.01;101520.47;5051540;28;20148;-45
2021/07/14 05:06:47;;;;;;;6.35;3.70;;;;;;;14.64;79.92;101517.53;5051276;28;20053;-43
2021/07/14 05:09:15;;;;;;;8.10;4.15;;;;;;;14.74;79.94;101519.84;5034752;28;20161;-51
2021/07/14 05:11:44;;;;;;;5.25;3.97;;;;;;;14.84;79.79;101519.31;5049070;28;20143;-44
2021/07/14 05:14:11;;;;;;;5.20;3.85;;;;;;;14.87;79.92;101526.97;5052112;28;20067;-44
2021/07/14 05:16:38;;;;;;;6.72;3.92;;;;;;;14.87;80.07;101518.63;5051939;28;20064;-52
2021/07/14 05:19:05;;;;;;;7.05;4.13;;;;;;;14.90;80.07;101525.47;5053765;28;20410;-43
2021/07/14 05:21:32;;;;;;;6.63;3.88;;;;;;;14.91;80.16;101533.44;5047116;28;20052;-44
2021/07/14 05:23:59;;;;;;;4.65;3.65;;;;;;;15.00;79.97;101530.50;5048367;28;20061;-48
2021/07/14 05:26:30;;;;;;;8.88;4.00;;;;;;;15.09;79.92;101540.34;5051603;28;20048;-46
2021/07/14 05:28:57;;;;;;;10.90;4.10;;;;;;;15.15;79.79;101530.56;5051063;28;20056;-47
2021/07/14 05:31:24;;;;;;;7.00;3.65;;;;;;;15.17;79.97;101527.38;5032416;28;20139;-44
2021/07/14 05:33:53;;;;;;;5.30;3.85;;;;;;;15.27;80.07;101524.88;5048927;28;20098;-43
2021/07/14 05:36:22;;;;;;;5.90;3.88;;;;;;;15.36;79.90;101521.13;5050548;28;20080;-43
2021/07/14 05:38:49;;;;;;;6.93;3.55;;;;;;;15.40;79.92;101530.41;5050145;28;20057;-43
2021/07/14 05:41:16;;;;;;;5.68;3.97;;;;;;;15.48;79.74;101535.03;5046717;28;20060;-52
2021/07/14 05:43:42;;;;;;;9.00;3.13;;;;;;;15.51;79.72;101534.31;5051420;28;20509;-43
2021/07/14 05:46:09;;;;;;;4.88;4.20;;;;;;;15.57;79.52;101544.84;5047773;28;20049;-43
2021/07/14 05:48:36;;;;;;;5.75;3.72;;;;;;;15.54;79.52;101539.97;5049096;28;20114;-49
2021/07/14 05:51:03;;;;;;;6.20;3.70;;;;;;;15.60;79.48;101537.72;5050532;28;20049;-43
2021/07/14 05:53:30;;;;;;;5.22;3.90;;;;;;;15.62;79.69;101544.56;5048799;28;20064;-43
2021/07/14 05:56:00;;;;;;;4.22;3.55;;;;;;;15.65;79.60;101541.06;5053328;28;20044;-46
2021/07/14 05:58:28;;;;;;;5.43;3.97;;;;;;;15.73;79.46;101542.88;5058321;28;20086;-43
2021/07/14 06:00:55;;;;;;;6.15;3.28;;;;;;;15.83;79.42;101547.13;5045750;28;20116;-43
2021/07/14 06:03:21;;;;;;;5.53;3.65;;;;;;;15.88;79.47;101548.81;5031815;28;20151;-46
2021/07/14 06:05:48;;;;;;;4.85;3.80;;;;;;;15.91;79.42;101551.69;5049132;28;20072;-43
2021/07/14 06:08:15;;;;;;;8.02;5.60;;;;;;;15.97;79.42;101547.44;5048483;28;20073;-45
2021/07/14 06:10:42;;;;;;;9.52;7.15;;;;;;;16.00;79.23;101557.06;5038795;28;20141;-44
2021/07/14 06:13:10;;;;;;;13.05;7.13;;;;;;;16.01;79.22;101559.53;5022145;28;20045;-50
2021/07/14 06:15:37;;;;;;;10.13;6.93;;;;;;;16.04;79.20;101558.81;5020875;28;20518;-44
2021/07/14 06:18:03;;;;;;;7.68;5.00;;;;;;;16.08;79.23;101554.09;5021082;28;20819;-49
2021/07/14 06:20:30;;;;;;;6.72;4.63;;;;;;;16.14;79.13;101560.22;5020645;28;20127;-43
2021/07/14 06:22:57;;;;;;;6.22;4.95;;;;;;;16.15;78.86;101559.84;5003476;28;20058;-43
2021/07/14 06:25:23;;;;;;;10.70;5.50;;;;;;;16.18;79.11;101570.31;5021248;28;20080;-48
2021/07/14 06:27:50;;;;;;;7.00;3.45;;;;;;;16.22;79.00;101568.41;5019183;28;20104;-44
2021/07/14 06:30:18;;;;;;;7.07;4.65;;;;;;;16.27;79.00;101568.13;5019855;28;20057;-48
2021/07/14 06:32:51;;;;;;;4.15;3.35;;;;;;;16.28;78.92;101580.91;5018532;28;20064;-50
2021/07/14 06:35:18;;;;;;;6.55;4.05;;;;;;;16.24;78.94;101571.66;5020872;28;20045;-43
2021/07/14 06:37:47;;;;;;;7.60;3.80;;;;;;;16.16;79.03;101577.41;5020809;28;20499;-43
2021/07/14 06:40:14;;;;;;;23.60;5.93;;;;;;;16.11;79.11;101581.31;5001570;28;20053;-50
2021/07/14 06:42:41;;;;;;;7.95;4.20;;;;;;;16.07;79.51;101580.41;5020239;28;20049;-47
2021/07/14 06:45:10;;;;;;;5.10;4.00;;;;;;;16.12;79.30;101580.16;5020637;28;20447;-44
2021/07/14 06:47:38;;;;;;;6.35;3.60;;;;;;;16.16;79.21;101583.81;5021324;28;20045;-44
2021/07/14 06:50:07;;;;;;;8.45;3.55;;;;;;;16.18;79.21;101592.66;5020700;28;20342;-46
2021/07/14 06:52:34;;;;;;;5.88;3.58;;;;;;;16.14;79.20;101580.59;5020614;28;21496;-46
2021/07/14 06:55:01;;;;;;;7.93;3.90;;;;;;;16.18;79.26;101586.25;5020421;28;20053;-44
2021/07/14 06:57:27;;;;;;;6.00;3.40;;;;;;;16.24;79.20;101584.81;5020707;28;20049;-51
2021/07/14 06:59:54;;;;;;;8.77;4.20;;;;;;;16.27;79.19;101579.31;5019387;28;20582;-52
2021/07/14 07:02:22;;;;;;;5.68;4.30;;;;;;;16.33;79.17;101580.66;5020435;28;20621;-44
2021/07/14 07:04:50;;;;;;;5.57;4.53;;;;;;;16.39;79.11;101581.16;5002928;28;20441;-44
2021/07/14 07:07:17;;;;;;;6.30;3.67;;;;;;;16.49;78.92;101579.78;5021078;28;20469;-49
2021/07/14 07:09:46;;;;;;;6.57;3.80;;;;;;;16.53;78.93;101577.91;5019459;28;20080;-47
2021/07/14 07:12:13;;;;;;;5.43;3.47;;;;;;;16.56;78.98;101580.78;5023374;28;20057;-45
2021/07/14 07:14:42;;;;;;;7.15;4.13;;;;;;;16.65;78.76;101577.78;5027541;28;20053;-46
2021/07/14 07:17:09;;;;;;;7.10;3.58;;;;;;;16.76;78.60;101578.84;5028267;28;20530;-45
2021/07/14 07:19:36;;;;;;;4.28;3.50;;;;;;;16.83;78.66;101574.22;5027732;28;20051;-48
2021/07/14 07:22:04;;;;;;;8.82;3.53;;;;;;;17.00;78.69;101584.13;5030477;28;20152;-53
2021/07/14 07:24:32;;;;;;;8.35;3.83;;;;;;;17.16;78.27;101587.66;5030015;28;20037;-43
2021/07/14 07:26:59;;;;;;;6.07;3.28;;;;;;;17.29;77.89;101591.91;5029770;28;20040;-43
2021/07/14 07:29:27;;;;;;;5.80;3.63;;;;;;;17.37;77.83;101592.84;5028123;28;20045;-50
2021/07/14 07:31:54;;;;;;;5.55;3.45;;;;;;;17.45;77.51;101589.81;5029838;28;20152;-45
2021/07/14 07:34:22;;;;;;;5.82;3.15;;;;;;;17.45;77.51;101597.41;5029904;28;20092;-46
2021/07/14 07:36:50;;;;;;;3.92;2.78;;;;;;;17.57;77.14;101595.31;5029111;28;20054;-44
2021/07/14 07:39:19;;;;;;;5.75;3.00;;;;;;;17.67;77.08;101595.84;5027242;28;20057;-47
2021/07/14 07:41:46;;;;;;;5.40;3.45;;;;;;;17.70;76.58;101603.50;5026777;28;20041;-43
2021/07/14 07:44:14;;;;;;;4.65;3.03;;;;;;;17.72;76.51;101596.34;5020093;28;20057;-49
2021/07/14 07:46:42;;;;;;;4.75;3.30;;;;;;;17.85;76.15;101608.19;5030794;28;20119;-44
2021/07/14 07:49:09;;;;;;;7.38;3.47;;;;;;;17.92;75.84;101613.94;5030724;28;20059;-44
2021/07/14 07:51:37;;;;;;;6.32;3.45;;;;;;;17.99;75.74;101614.03;5034277;28;20061;-45
2021/07/14 07:54:05;;;;;;;2.90;2.45;;;;;;;17.92;75.69;101613.94;5034521;28;20056;-45
2021/07/14 07:56:33;;;;;;;5.38;3.15;;;;;;;17.88;75.43;101610.22;5031456;28;20057;-44
2021/07/14 07:59:02;;;;;;;9.32;3.55;;;;;;;17.95;75.26;101613.97;5033995;28;20055;-49
2021/07/14 08:01:35;;;;;;;4.68;3.15;;;;;;;17.97;74.99;101611.63;5034030;28;20102;-43
2021/07/14 08:04:03;;;;;;;7.50;3.78;;;;;;;17.98;74.99;101612.41;5031064;28;20049;-47
2021/07/14 08:06:30;;;;;;;4.18;3.53;;;;;;;18.09;75.08;101616.19;5033455;28;20057;-45
2021/07/14 08:08:57;;;;;;;7.60;3.72;;;;;;;18.22;74.99;101607.22;5032152;28;20064;-51
2021/07/14 08:11:24;;;;;;;5.80;3.38;;;;;;;18.29;74.50;101614.13;5044278;28;20048;-49
2021/07/14 08:13:54;;;;;;;6.78;3.85;;;;;;;18.42;74.57;101605.13;5052077;28;20047;-44
2021/07/14 08:16:22;;;;;;;4.80;3.08;;;;;;;18.57;74.08;101604.19;5033528;28;20829;-44
2021/07/14 08:18:49;;;;;;;4.68;3.00;;;;;;;18.75;73.86;101607.22;5047772;28;20072;-46
2021/07/14 08:21:16;;;;;;;5.43;3.10;;;;;;;18.93;73.63;101610.28;5046476;28;20053;-43
2021/07/14 08:23:43;;;;;;;6.18;4.03;;;;;;;19.22;73.19;101609.47;5035165;28;20998;-43
2021/07/14 08:26:12;;;;;;;4.80;2.65;;;;;;;19.69;73.49;101611.59;5052938;28;20131;-44
2021/07/14 08:28:40;;;;;;;11.35;10.23;;;;;;;20.10;72.37;101613.19;5053313;28;20044;-44
2021/07/14 08:31:06;;;;;;;5.40;3.10;;;;;;;20.26;71.46;101618.56;5052419;28;20184;-47
2021/07/14 08:33:34;;;;;;;4.03;2.60;;;;;;;20.28;70.45;101616.19;5055192;28;20080;-44
2021/07/14 08:36:01;;;;;;;3.83;2.28;;;;;;;20.28;70.14;101610.56;5051867;28;20420;-49
2021/07/14 08:38:28;;;;;;;3.70;2.92;;;;;;;20.23;69.32;101613.66;5053152;28;20067;-50
2021/07/14 08:40:58;;;;;;;5.32;2.40;;;;;;;20.11;68.58;101611.19;5052778;28;20048;-46
2021/07/14 08:43:28;;;;;;;7.10;2.72;;;;;;;20.03;68.76;101613.13;5048402;28;20090;-46
2021/07/14 08:45:58;;;;;;;3.83;2.38;;;;;;;19.99;68.21;101615.91;5052545;28;20036;-51
2021/07/14 08:48:26;;;;;;;3.42;2.70;;;;;;;19.97;68.02;101609.84;5055873;28;20141;-49
2021/07/14 08:50:58;;;;;;;5.15;3.17;;;;;;;20.14;68.04;101604.78;5053606;28;20682;-52
2021/07/14 08:53:28;;;;;;;3.85;1.98;;;;;;;20.37;68.16;101613.81;5047764;28;20094;-46
2021/07/14 08:56:02;;;;;;;3.85;3.05;;;;;;;20.54;67.28;101616.75;5035011;28;22577;-44
2021/07/14 08:58:29;;;;;;;2.20;1.90;;;;;;;20.56;67.24;101610.75;5048714;28;20053;-45
2021/07/14 09:00:58;;;;;;;5.53;2.03;;;;;;;20.39;66.96;101612.22;5047561;28;20894;-44
2021/07/14 09:03:27;;;;;;;4.43;2.40;;;;;;;20.40;66.78;101619.47;5049968;28;20773;-48
2021/07/14 09:05:54;;;;;;;3.55;2.00;;;;;;;20.77;66.43;101610.88;5050506;28;20052;-48
2021/07/14 09:08:24;;;;;;;6.32;2.30;;;;;;;21.24;66.00;101612.72;5050355;28;20145;-44
2021/07/14 09:10:51;;;;;;;4.80;1.70;;;;;;;21.84;64.52;101601.59;5058469;28;20059;-44
2021/07/14 09:13:18;;;;;;;3.60;2.50;;;;;;;22.07;64.06;101602.03;5049579;28;20144;-44
2021/07/14 09:15:49;;;;;;;4.38;1.98;;;;;;;22.26;63.38;101601.63;5046294;28;20044;-44
2021/07/14 09:18:21;;;;;;;6.03;1.80;;;;;;;22.64;61.50;101594.31;5048143;28;20048;-53
2021/07/14 09:20:48;;;;;;;5.93;2.65;;;;;;;23.26;61.14;101597.31;5047168;28;20048;-44
2021/07/14 09:23:25;;;;;;;2.65;1.77;;;;;;;23.88;59.58;101588.09;5048364;28;20328;-44
2021/07/14 09:26:03;;;;;;;2.30;1.75;;;;;;;24.45;57.64;101588.41;5048244;28;20091;-49
2021/07/14 09:28:39;;;;;;;2.10;1.30;;;;;;;24.96;54.78;101585.44;5049343;28;20171;-47
2021/07/14 09:31:10;;;;;;;2.95;1.77;;;;;;;25.13;54.64;101590.06;5047517;28;20057;-44
2021/07/14 09:33:42;;;;;;;2.13;1.50;;;;;;;24.76;54.01;101581.56;5048065;28;20060;-49
2021/07/14 09:36:10;;;;;;;3.35;1.70;;;;;;;24.87;54.40;101587.97;5050356;28;20057;-48
2021/07/14 09:38:40;;;;;;;2.20;1.20;;;;;;;25.37;53.64;101585.28;5047155;28;20073;-44
2021/07/14 09:41:11;;;;;;;1.25;1.08;;;;;;;25.86;52.06;101581.75;5048143;28;20142;-44
2021/07/14 09:43:40;;;;;;;6.25;1.63;;;;;;;26.24;51.00;101573.81;5045460;28;20497;-43
2021/07/14 09:46:12;;;;;;;2.00;0.80;;;;;;;26.49;50.18;101582.69;5046013;28;20049;-44
2021/07/14 09:48:46;;;;;;;0.90;0.80;;;;;;;26.76;48.13;101576.88;5048623;28;20041;-47
2021/07/14 09:51:21;;;;;;;1.55;0.90;;;;;;;26.85;48.14;101579.97;5048378;28;20062;-44
2021/07/14 09:53:50;;;;;;;0.80;0.80;;;;;;;27.04;48.04;101582.00;5046792;28;20271;-51
2021/07/14 09:56:23;;;;;;;1.75;0.68;;;;;;;27.14;47.57;101592.34;5048895;28;20055;-43
2021/07/14 09:59:03;;;;;;;3.42;1.60;;;;;;;27.15;46.26;101582.59;5050974;28;20391;-48
2021/07/14 10:01:36;;;;;;;0.90;0.70;;;;;;;26.51;47.17;101576.56;5047579;28;20053;-43
2021/07/14 10:04:05;;;;;;;1.42;1.13;;;;;;;25.69;48.12;101574.31;5046841;28;20064;-45
2021/07/14 10:07:04;;;;;;;1.75;0.70;;;;;;;25.03;49.01;101574.00;5046835;28;20402;-49
2021/07/14 10:09:31;;;;;;;3.72;1.05;;;;;;;25.20;49.55;101567.31;5048534;28;20472;-44
2021/07/14 10:12:24;;;;;;;1.63;0.90;;;;;;;25.17;48.85;101573.00;5048446;28;20052;-46
2021/07/14 10:14:52;;;;;;;1.27;1.00;;;;;;;24.81;50.20;101579.13;5049125;28;20048;-43
2021/07/14 10:17:49;;;;;;;0.43;0.43;;;;;;;24.60;49.69;101576.50;5051665;28;20057;-48
2021/07/14 10:20:44;;;;;;;1.67;0.50;;;;;;;24.63;50.57;101578.50;5046328;28;20413;-43
2021/07/14 10:23:15;;;;;;;0.68;0.47;;;;;;;24.86;51.11;101579.91;5045803;28;20087;-45
2021/07/14 10:25:44;;;;;;;3.50;0.70;;;;;;;24.93;51.11;101579.78;5045398;28;20159;-48
2021/07/14 10:28:13;;;;;;;2.03;0.50;;;;;;;24.64;50.69;101580.09;5046481;28;20290;-50
2021/07/14 10:30:41;;;;;;;1.08;0.93;;;;;;;24.12;50.64;101582.22;5047767;28;20045;-47
2021/07/14 10:33:11;;;;;;;1.27;0.38;;;;;;;24.21;50.62;101585.41;5048245;28;20484;-47
2021/07/14 10:35:41;;;;;;;6.38;0.40;;;;;;;24.62;50.42;101585.38;5051463;28;20543;-45
2021/07/14 10:38:25;;;;;;;1.35;0.20;;;;;;;25.06;49.24;101584.50;5047123;28;20061;-47
2021/07/14 10:40:53;;;;;;;0.50;0.30;;;;;;;25.25;48.87;101580.19;5046429;28;20401;-46
2021/07/14 10:43:24;;;;;;;0.40;0.20;;;;;;;25.31;47.91;101578.50;5028974;28;20052;-48
2021/07/14 10:46:12;;;;;;;3.13;0.43;;;;;;;24.90;49.24;101574.97;5047603;28;20385;-45
2021/07/14 10:48:42;;;;;;;0.22;0.22;;;;;;;24.45;48.93;101583.53;5046935;28;20048;-46
2021/07/14 10:51:09;;;;;;;0.60;0.60;;;;;;;24.16;50.04;101587.88;5047739;28;20049;-44
2021/07/14 10:53:39;;;;;;;0.70;0.70;;;;;;;23.76;50.83;101588.56;5048706;28;20053;-45
2021/07/14 10:56:09;;;;;;;0.73;0.60;;;;;;;23.46;51.54;101589.16;5048359;28;20207;-45
2021/07/14 10:58:42;;;;;;;2.13;0.52;;;;;;;23.04;51.86;101592.97;5046104;28;20048;-44
2021/07/14 11:01:10;;;;;;;0.88;0.60;;;;;;;23.03;52.68;101594.22;5047702;28;20155;-44
2021/07/14 11:03:42;;;;;;;0.82;0.50;;;;;;;23.35;52.78;101588.41;5048097;28;20048;-43
2021/07/14 11:06:12;;;;;;;0.73;0.70;;;;;;;23.64;52.63;101584.22;5047770;28;20223;-44
2021/07/14 11:08:49;;;;;;;2.75;0.50;;;;;;;23.79;52.42;101580.06;5046568;28;20049;-42
2021/07/14 11:11:24;;;;;;;1.23;0.70;;;;;;;23.96;52.54;101578.31;5046365;28;20542;-43
2021/07/14 11:14:09;;;;;;;0.82;0.32;;;;;;;24.14;51.79;101574.16;5028594;28;20081;-43
2021/07/14 11:16:40;;;;;;;0.75;0.50;;;;;;;24.09;51.61;101573.78;5045468;28;20071;-44
2021/07/14 11:19:07;;;;;;;4.22;0.45;;;;;;;24.05;51.34;101576.63;5028747;28;20140;-43
2021/07/14 11:21:46;;;;;;;0.47;0.43;;;;;;;24.24;49.86;101580.91;5046100;28;20615;-43
2021/07/14 11:24:53;;;;;;;1.30;0.50;;;;;;;24.02;50.53;101576.63;5028638;28;20057;-48
2021/07/14 11:27:26;;;;;;;0.52;0.52;;;;;;;23.80;51.02;101575.22;5046684;28;20139;-44
2021/07/14 11:30:02;;;;;;;1.58;0.60;;;;;;;23.50;49.83;101584.31;5046307;28;20060;-45
2021/07/14 11:32:35;;;;;;;0.45;0.45;;;;;;;23.15;50.66;101585.25;5045225;28;20045;-45
2021/07/14 11:35:16;;;;;;;1.85;0.57;;;;;;;23.11;51.29;101587.31;5046778;28;20045;-49
2021/07/14 11:37:44;;;;;;;1.45;0.50;;;;;;;23.28;51.69;101583.59;5046439;28;20056;-47
2021/07/14 11:40:20;;;;;;;1.15;0.77;;;;;;;23.22;51.56;101590.88;5049479;28;20557;-47
2021/07/14 11:42:51;;;;;;;6.55;1.52;;;;;;;23.13;52.33;101590.53;5049179;28;20079;-44
2021/07/14 11:45:34;;;;;;;3.38;1.00;;;;;;;23.14;52.49;101594.16;5047655;28;20060;-43
2021/07/14 11:48:29;;;;;;;1.30;1.10;;;;;;;23.11;52.59;101594.97;5047442;28;20101;-46